createdAt,value
2018-12-19T00:02:13.657Z,8.40
2018-12-19T00:04:43.260Z,6.85
2018-12-19T00:07:13.491Z,7.08
2018-12-19T00:09:43.527Z,5.92
2018-12-19T00:12:14.113Z,6.30
2018-12-19T00:14:43.960Z,5.90
2018-12-19T00:17:13.542Z,5.60
2018-12-19T00:19:43.156Z,5.55
2018-12-19T00:22:13.434Z,5.90
2018-12-19T00:24:44.521Z,5.62
2018-12-19T00:27:14.533Z,5.55
2018-12-19T00:29:44.320Z,4.70
2018-12-19T00:32:14.380Z,5.08
2018-12-19T00:34:44.491Z,4.97
2018-12-19T00:37:15.199Z,4.45
2018-12-19T00:39:44.974Z,3.98
2018-12-19T00:42:15.391Z,3.90
2018-12-19T00:44:45.138Z,3.90
2018-12-19T00:47:15.060Z,4.20
2018-12-19T00:49:46.167Z,4.15
2018-12-19T00:52:16.155Z,4.08
2018-12-19T00:54:45.985Z,4.08
2018-12-19T00:57:16.508Z,4.60
2018-12-19T00:59:46.620Z,4.35
2018-12-19T01:02:16.215Z,4.35
2018-12-19T01:04:48.188Z,3.92
2018-12-19T01:07:17.650Z,3.60
2018-12-19T01:09:47.516Z,4.53
2018-12-19T01:12:17.429Z,4.08
2018-12-19T01:14:47.119Z,5.10
2018-12-19T01:17:16.791Z,4.53
2018-12-19T01:19:47.066Z,14.23
2018-12-19T01:22:16.965Z,8.13
2018-12-19T01:24:46.590Z,6.12
2018-12-19T01:27:16.762Z,6.20
2018-12-19T01:29:48.332Z,6.17
2018-12-19T01:32:18.884Z,6.00
2018-12-19T01:34:48.712Z,4.95
2018-12-19T01:37:18.560Z,4.20
2018-12-19T01:39:48.348Z,3.70
2018-12-19T01:42:18.416Z,3.40
2018-12-19T01:44:47.929Z,3.10
2018-12-19T01:47:17.731Z,2.87
2018-12-19T01:49:47.753Z,2.70
2018-12-19T01:52:17.315Z,2.30
2018-12-19T01:54:47.883Z,2.27
2018-12-19T01:57:17.979Z,2.50
2018-12-19T01:59:47.831Z,3.40
2018-12-19T02:02:19.299Z,3.20
2018-12-19T02:04:49.705Z,2.92
2018-12-19T02:07:19.212Z,2.58
2018-12-19T02:09:49.063Z,2.12
2018-12-19T02:12:19.052Z,2.15
2018-12-19T02:14:48.805Z,1.72
2018-12-19T02:17:18.502Z,1.92
2018-12-19T02:19:48.455Z,2.20
2018-12-19T02:22:18.385Z,1.80
2018-12-19T02:24:48.248Z,1.65
2018-12-19T02:27:18.323Z,2.20
2018-12-19T02:29:48.146Z,2.15
2018-12-19T02:32:18.811Z,1.80
2018-12-19T02:34:48.926Z,1.67
2018-12-19T02:37:18.805Z,1.67
2018-12-19T02:39:48.866Z,1.70
2018-12-19T02:42:19.385Z,3.20
2018-12-19T02:44:49.444Z,1.50
2018-12-19T02:47:19.149Z,1.80
2018-12-19T02:49:49.440Z,2.17
2018-12-19T02:52:19.347Z,2.10
2018-12-19T02:54:49.244Z,1.80
2018-12-19T02:57:19.886Z,1.67
2018-12-19T02:59:49.676Z,2.17
2018-12-19T03:02:19.799Z,2.07
2018-12-19T03:04:50.334Z,1.67
2018-12-19T03:07:20.478Z,1.80
2018-12-19T03:09:50.459Z,1.70
2018-12-19T03:12:20.727Z,1.83
2018-12-19T03:14:50.664Z,1.53
2018-12-19T03:17:20.207Z,1.60
2018-12-19T03:19:49.985Z,1.60
2018-12-19T03:22:19.973Z,1.40
2018-12-19T03:24:49.521Z,1.57
2018-12-19T03:27:20.022Z,1.70
2018-12-19T03:29:49.627Z,2.30
2018-12-19T03:32:19.524Z,1.37
2018-12-19T03:34:49.344Z,1.20
2018-12-19T03:37:19.009Z,1.77
2018-12-19T03:39:50.391Z,1.80
2018-12-19T03:42:20.838Z,1.70
2018-12-19T03:44:50.476Z,1.60
2018-12-19T03:47:20.142Z,1.60
2018-12-19T03:49:50.712Z,1.93
2018-12-19T03:52:20.905Z,1.50
2018-12-19T03:54:50.554Z,1.50
2018-12-19T03:57:21.141Z,1.47
2018-12-19T03:59:51.362Z,1.57
2018-12-19T04:02:21.443Z,1.43
2018-12-19T04:04:51.561Z,1.43
2018-12-19T04:07:21.238Z,1.70
2018-12-19T04:09:57.490Z,1.57
2018-12-19T04:12:23.277Z,1.57
2018-12-19T04:14:52.782Z,1.37
2018-12-19T04:17:22.734Z,1.90
2018-12-19T04:19:52.317Z,1.53
2018-12-19T04:22:22.696Z,1.17
2018-12-19T04:24:52.748Z,1.73
2018-12-19T04:27:22.498Z,1.40
2018-12-19T04:29:52.587Z,1.40
2018-12-19T04:32:22.501Z,1.20
2018-12-19T04:34:52.212Z,1.20
2018-12-19T04:37:22.269Z,1.37
2018-12-19T04:39:53.989Z,1.23
2018-12-19T04:42:24.098Z,1.33
2018-12-19T04:44:55.146Z,1.40
2018-12-19T04:47:24.886Z,1.33
2018-12-19T04:49:54.439Z,1.40
2018-12-19T04:52:24.248Z,1.67
2018-12-19T04:54:53.986Z,1.40
2018-12-19T04:57:23.450Z,1.90
2018-12-19T04:59:53.381Z,1.67
2018-12-19T05:02:23.414Z,1.90
2018-12-19T05:04:53.220Z,1.40
2018-12-19T05:07:23.692Z,1.90
2018-12-19T05:09:53.386Z,2.30
2018-12-19T05:12:24.335Z,1.80
2018-12-19T05:14:53.868Z,2.00
2018-12-19T05:17:23.988Z,2.03
2018-12-19T05:19:54.964Z,1.80
2018-12-19T05:22:25.018Z,2.27
2018-12-19T05:24:55.038Z,1.93
2018-12-19T05:27:25.397Z,1.97
2018-12-19T05:29:55.702Z,1.43
2018-12-19T05:32:26.497Z,2.07
2018-12-19T05:34:56.776Z,2.47
2018-12-19T05:37:26.395Z,2.00
2018-12-19T05:39:56.065Z,2.40
2018-12-19T05:42:26.497Z,2.17
2018-12-19T05:44:57.374Z,2.00
2018-12-19T05:47:28.704Z,2.70
2018-12-19T05:49:58.919Z,2.40
2018-12-19T05:52:29.378Z,2.60
2018-12-19T05:54:59.894Z,2.63
2018-12-19T05:57:29.838Z,2.80
2018-12-19T05:59:59.708Z,2.20
2018-12-19T06:02:29.473Z,3.30
2018-12-19T06:05:00.175Z,2.40
2018-12-19T06:07:29.687Z,2.93
2018-12-19T06:10:01.059Z,4.00
2018-12-19T06:12:31.504Z,2.77
2018-12-19T06:15:01.404Z,3.03
2018-12-19T06:17:31.023Z,5.50
2018-12-19T06:20:01.483Z,3.47
2018-12-19T06:22:31.070Z,3.27
2018-12-19T06:25:00.907Z,3.47
2018-12-19T06:27:30.573Z,4.30
2018-12-19T06:31:03.415Z,3.57
2018-12-19T06:33:34.011Z,3.57
2018-12-19T06:36:03.532Z,2.97
2018-12-19T06:38:33.252Z,3.70
2018-12-19T06:41:03.015Z,3.90
2018-12-19T06:43:32.523Z,9.80
2018-12-19T06:46:03.839Z,3.47
2018-12-19T06:48:33.472Z,3.43
2018-12-19T06:51:03.018Z,7.00
2018-12-19T06:53:32.524Z,3.93
2018-12-19T06:56:03.152Z,4.23
2018-12-19T06:58:32.550Z,4.33
2018-12-19T07:01:02.412Z,3.27
2018-12-19T07:03:33.319Z,3.77
2018-12-19T07:06:03.090Z,4.57
2018-12-19T07:08:32.848Z,4.70
2018-12-19T07:11:03.239Z,4.37
2018-12-19T07:13:33.056Z,4.60
2018-12-19T07:16:02.732Z,4.03
2018-12-19T07:18:32.676Z,4.60
2018-12-19T07:21:03.037Z,4.17
2018-12-19T07:23:32.577Z,4.20
2018-12-19T07:26:03.106Z,4.70
2018-12-19T07:28:32.825Z,4.43
2018-12-19T07:31:02.984Z,5.07
2018-12-19T07:33:32.851Z,4.80
2018-12-19T07:36:02.567Z,5.13
2018-12-19T07:38:32.013Z,5.10
2018-12-19T07:41:01.846Z,4.90
2018-12-19T07:43:31.716Z,4.60
2018-12-19T07:46:01.161Z,5.70
2018-12-19T07:48:31.455Z,5.00
2018-12-19T07:51:00.957Z,4.93
2018-12-19T07:53:30.914Z,4.90
2018-12-19T07:56:00.819Z,4.50
2018-12-19T07:58:30.428Z,5.47
2018-12-19T08:00:59.810Z,5.10
2018-12-19T08:03:29.914Z,4.83
2018-12-19T08:05:59.927Z,4.90
2018-12-19T08:08:29.506Z,5.30
2018-12-19T08:10:59.172Z,5.93
2018-12-19T08:13:29.186Z,4.87
2018-12-19T08:15:58.675Z,5.30
2018-12-19T08:18:28.794Z,5.70
2018-12-19T08:20:58.512Z,5.63
2018-12-19T08:23:28.414Z,6.23
2018-12-19T08:25:58.718Z,5.90
2018-12-19T08:28:28.145Z,5.97
2018-12-19T08:30:57.510Z,6.17
2018-12-19T08:33:27.334Z,5.80
2018-12-19T08:35:57.160Z,6.50
2018-12-19T08:38:28.516Z,7.13
2018-12-19T08:40:59.039Z,6.20
2018-12-19T08:43:29.428Z,7.13
2018-12-19T08:45:59.272Z,6.10
2018-12-19T08:48:28.987Z,8.70
2018-12-19T08:50:59.425Z,7.27
2018-12-19T08:53:29.028Z,6.30
2018-12-19T08:55:58.762Z,6.30
2018-12-19T08:58:28.544Z,8.20
2018-12-19T09:00:58.964Z,6.17
2018-12-19T09:03:32.104Z,6.67
2018-12-19T09:06:01.674Z,7.60
2018-12-19T09:08:31.513Z,6.67
2018-12-19T09:11:05.636Z,6.37
2018-12-19T09:13:32.997Z,6.00
2018-12-19T09:16:02.815Z,8.50
2018-12-19T09:18:33.400Z,6.63
2018-12-19T09:21:02.930Z,6.73
2018-12-19T09:23:32.495Z,5.73
2018-12-19T09:26:02.373Z,5.73
2018-12-19T09:28:31.783Z,6.30
2018-12-19T09:31:01.589Z,6.93
2018-12-19T09:33:32.275Z,6.50
2018-12-19T09:36:02.026Z,6.20
2018-12-19T09:38:31.587Z,6.87
2018-12-19T09:41:01.518Z,6.83
2018-12-19T09:43:31.496Z,6.23
2018-12-19T09:46:01.401Z,7.03
2018-12-19T09:48:31.719Z,5.80
2018-12-19T09:51:02.432Z,6.67
2018-12-19T09:53:32.330Z,6.70
2018-12-19T09:56:03.135Z,6.77
2018-12-19T09:58:34.501Z,7.00
2018-12-19T10:01:05.992Z,6.33
2018-12-19T10:03:36.192Z,6.13
2018-12-19T10:06:06.205Z,5.83
2018-12-19T10:08:36.448Z,6.13
2018-12-19T10:11:09.343Z,6.73
2018-12-19T10:13:38.864Z,6.67
2018-12-19T10:16:09.949Z,5.93
2018-12-19T10:18:40.039Z,6.83
2018-12-19T10:21:10.291Z,6.13
2018-12-19T10:23:40.783Z,6.37
2018-12-19T10:26:14.304Z,6.83
2018-12-19T10:28:44.308Z,6.73
2018-12-19T10:31:14.439Z,6.70
2018-12-19T10:33:45.482Z,6.57
2018-12-19T10:36:18.358Z,6.97
2018-12-19T10:38:48.710Z,6.87
2018-12-19T10:41:25.313Z,6.57
2018-12-19T10:43:56.364Z,5.90
2018-12-19T10:46:27.278Z,7.10
2018-12-19T10:48:59.330Z,7.07
2018-12-19T10:51:29.657Z,7.37
2018-12-19T10:54:02.491Z,7.77
2018-12-19T10:56:33.791Z,7.60
2018-12-19T10:59:06.075Z,6.80
2018-12-19T11:01:43.608Z,7.27
2018-12-19T11:04:15.155Z,6.97
2018-12-19T11:06:45.171Z,6.80
2018-12-19T11:09:17.874Z,6.60
2018-12-19T11:11:53.122Z,6.73
2018-12-19T11:14:28.582Z,6.40
2018-12-19T11:17:04.162Z,6.37
2018-12-19T11:19:34.730Z,6.77
2018-12-19T11:22:12.789Z,7.30
2018-12-19T11:24:46.723Z,6.60
2018-12-19T11:27:16.717Z,6.70
2018-12-19T11:29:48.545Z,7.70
2018-12-19T11:32:20.631Z,7.03
2018-12-19T11:34:53.188Z,6.60
2018-12-19T11:37:26.433Z,7.17
2018-12-19T11:39:56.625Z,6.77
2018-12-19T11:42:26.580Z,8.07
2018-12-19T11:44:57.109Z,6.30
2018-12-19T11:47:30.385Z,6.87
2018-12-19T11:49:59.903Z,6.00
2018-12-19T11:52:31.946Z,6.40
2018-12-19T11:55:07.305Z,6.57
2018-12-19T11:57:37.586Z,6.70
2018-12-19T12:00:16.336Z,6.23
2018-12-19T12:02:50.825Z,6.57
2018-12-19T12:05:24.041Z,6.50
2018-12-19T12:07:54.115Z,6.80
2018-12-19T12:10:26.882Z,6.57
2018-12-19T12:12:57.166Z,6.63
2018-12-19T12:15:27.329Z,6.70
2018-12-19T12:17:57.548Z,6.40
2018-12-19T12:20:27.414Z,6.33
2018-12-19T12:22:57.957Z,6.63
2018-12-19T12:29:35.194Z,6.27
2018-12-19T12:32:06.132Z,6.00
2018-12-19T12:34:36.176Z,7.00
2018-12-19T12:37:06.618Z,6.30
2018-12-19T12:39:36.182Z,6.60
2018-12-19T12:42:06.463Z,5.87
2018-12-19T12:44:36.474Z,6.90
2018-12-19T12:47:13.045Z,6.30
2018-12-19T12:49:49.025Z,5.83
2018-12-19T12:52:18.715Z,5.70
2018-12-19T12:54:54.744Z,5.60
2018-12-19T12:57:27.751Z,5.87
2018-12-19T13:00:00.279Z,6.47
2018-12-19T13:02:33.012Z,6.10
2018-12-19T13:05:15.412Z,6.30
2018-12-19T13:07:52.080Z,6.03
2018-12-19T13:10:23.948Z,5.73
2018-12-19T13:12:58.941Z,6.23
2018-12-19T13:18:21.831Z,6.20
2018-12-19T13:21:12.741Z,5.70
2018-12-19T13:24:02.788Z,6.27
2018-12-19T13:26:33.525Z,6.20
2018-12-19T13:29:05.870Z,5.20
2018-12-19T13:31:45.246Z,6.50
2018-12-19T13:34:20.941Z,5.50
2018-12-19T13:36:56.142Z,6.10
2018-12-19T13:39:35.622Z,5.63
2018-12-19T13:42:06.238Z,6.03
2018-12-19T13:44:36.810Z,6.60
2018-12-19T13:47:07.245Z,6.47
2018-12-19T13:49:38.543Z,6.10
2018-12-19T13:52:11.485Z,6.17
2018-12-19T13:54:46.465Z,8.00
2018-12-19T13:57:21.846Z,5.90
2018-12-19T13:59:59.472Z,5.80
2018-12-19T14:02:38.675Z,5.27
2018-12-19T14:05:12.899Z,6.63
2018-12-19T14:07:44.094Z,6.70
2018-12-19T14:10:17.524Z,6.00
2018-12-19T14:12:49.968Z,6.20
2018-12-19T14:15:22.300Z,5.93
2018-12-19T14:17:55.644Z,6.70
2018-12-19T14:20:27.336Z,5.70
2018-12-19T14:22:59.537Z,5.90
2018-12-19T14:25:31.670Z,6.60
2018-12-19T14:28:04.419Z,7.37
2018-12-19T14:30:38.132Z,6.67
2018-12-19T14:33:09.465Z,6.90
2018-12-19T14:35:41.459Z,6.90
2018-12-19T14:38:15.626Z,6.67
2018-12-19T14:40:48.321Z,6.83
2018-12-19T14:43:21.019Z,7.00
2018-12-19T14:45:52.022Z,7.27
2018-12-19T14:48:23.133Z,6.33
2018-12-19T14:50:57.053Z,6.10
2018-12-19T14:53:31.290Z,7.00
2018-12-19T14:56:01.746Z,5.87
2018-12-19T14:58:35.655Z,6.50
2018-12-19T15:01:07.092Z,6.17
2018-12-19T15:03:37.802Z,6.20
2018-12-19T15:06:09.516Z,6.97
2018-12-19T15:08:41.398Z,5.63
2018-12-19T15:11:12.996Z,5.83
2018-12-19T15:13:43.603Z,6.43
2018-12-19T15:16:16.886Z,6.00
2018-12-19T15:18:47.661Z,5.90
2018-12-19T15:21:22.614Z,8.27
2018-12-19T15:23:54.785Z,6.30
2018-12-19T15:26:25.684Z,6.07
2018-12-19T15:28:59.949Z,5.43
2018-12-19T15:31:30.719Z,6.43
2018-12-19T15:34:01.858Z,6.07
2018-12-19T15:36:37.814Z,6.00
2018-12-19T15:39:12.710Z,5.80
2018-12-19T15:41:45.937Z,6.10
2018-12-19T15:44:17.171Z,5.30
2018-12-19T15:46:50.362Z,6.43
2018-12-19T15:49:21.910Z,5.70
2018-12-19T15:51:54.194Z,5.67
2018-12-19T15:54:28.146Z,4.83
2018-12-19T15:57:01.352Z,5.57
2018-12-19T15:59:34.284Z,4.80
2018-12-19T16:02:06.805Z,4.57
2018-12-19T16:04:37.571Z,5.30
2018-12-19T16:07:08.273Z,5.07
2018-12-19T16:09:40.036Z,4.70
2018-12-19T16:12:12.042Z,5.30
2018-12-19T16:14:43.608Z,5.20
2018-12-19T16:17:15.588Z,5.67
2018-12-19T16:19:46.927Z,5.97
2018-12-19T16:22:18.541Z,5.40
2018-12-19T16:24:49.090Z,5.07
2018-12-19T16:27:19.299Z,4.70
2018-12-19T16:29:50.352Z,5.80
2018-12-19T16:32:22.389Z,4.67
2018-12-19T16:34:54.233Z,5.00
2018-12-19T16:37:25.426Z,5.13
2018-12-19T16:39:56.624Z,5.03
2018-12-19T16:42:27.313Z,6.23
2018-12-19T16:44:57.343Z,4.97
2018-12-19T16:47:27.082Z,5.00
2018-12-19T16:50:06.893Z,5.37
2018-12-19T16:52:43.148Z,5.20
2018-12-19T16:55:21.276Z,4.87
2018-12-19T16:57:52.824Z,5.10
2018-12-19T17:00:23.323Z,5.67
2018-12-19T17:02:53.568Z,5.43
2018-12-19T17:05:24.634Z,5.20
2018-12-19T17:07:55.963Z,5.33
2018-12-19T17:10:26.184Z,4.97
2018-12-19T17:12:56.540Z,4.93
2018-12-19T17:15:26.794Z,5.40
2018-12-19T17:17:56.982Z,5.77
2018-12-19T17:20:27.914Z,5.33
2018-12-19T17:22:57.875Z,5.40
2018-12-19T17:25:28.254Z,5.50
2018-12-19T17:27:58.019Z,5.20
2018-12-19T17:30:30.688Z,5.40
2018-12-19T17:33:03.455Z,6.50
2018-12-19T17:35:34.346Z,5.63
2018-12-19T17:38:04.886Z,4.60
2018-12-19T17:40:36.879Z,5.40
2018-12-19T17:43:06.898Z,5.37
2018-12-19T17:45:38.015Z,4.90
2018-12-19T17:48:08.860Z,5.00
2018-12-19T17:50:39.780Z,4.90
2018-12-19T17:53:11.081Z,5.10
2018-12-19T17:55:41.558Z,4.80
2018-12-19T17:58:11.097Z,5.63
2018-12-19T18:00:41.086Z,5.43
2018-12-19T18:03:11.668Z,6.10
2018-12-19T18:05:42.001Z,5.43
2018-12-19T18:08:11.632Z,5.73
2018-12-19T18:10:42.735Z,5.60
2018-12-19T18:13:13.945Z,6.00
2018-12-19T18:15:44.049Z,5.53
2018-12-19T18:18:14.157Z,5.10
2018-12-19T18:20:44.095Z,4.77
2018-12-19T18:23:15.887Z,5.77
2018-12-19T18:25:46.591Z,5.57
2018-12-19T18:28:17.351Z,5.33
2018-12-19T18:30:47.150Z,4.83
2018-12-19T18:33:19.540Z,5.67
2018-12-19T18:35:49.007Z,7.70
2018-12-19T18:38:21.990Z,5.83
2018-12-19T18:40:52.404Z,5.20
2018-12-19T18:43:24.371Z,5.27
2018-12-19T18:45:54.211Z,4.93
2018-12-19T18:48:24.174Z,5.20
2018-12-19T18:50:54.316Z,5.30
2018-12-19T18:53:23.956Z,4.77
2018-12-19T18:55:55.967Z,4.93
2018-12-19T18:58:26.103Z,5.80
2018-12-19T19:00:59.958Z,5.20
2018-12-19T19:03:32.316Z,5.40
2018-12-19T19:06:03.975Z,4.83
2018-12-19T19:08:33.733Z,4.90
2018-12-19T19:11:07.345Z,5.47
2018-12-19T19:13:37.139Z,5.40
2018-12-19T19:16:08.323Z,5.37
2018-12-19T19:18:42.867Z,5.00
2018-12-19T19:21:12.601Z,5.33
2018-12-19T19:23:43.557Z,5.30
2018-12-19T19:26:13.483Z,5.67
2018-12-19T19:28:43.019Z,5.07
2018-12-19T19:31:14.261Z,5.40
2018-12-19T19:33:43.866Z,4.70
2018-12-19T19:36:15.310Z,4.57
2018-12-19T19:38:45.820Z,4.73
2018-12-19T19:41:16.244Z,5.90
2018-12-19T19:43:46.140Z,5.40
2018-12-19T19:46:18.349Z,5.60
2018-12-19T19:48:50.746Z,5.63
2018-12-19T19:51:21.698Z,5.57
2018-12-19T19:53:51.704Z,5.60
2018-12-19T19:56:21.677Z,5.33
2018-12-19T19:58:53.012Z,5.60
2018-12-19T20:01:25.854Z,5.80
2018-12-19T20:03:58.493Z,5.97
2018-12-19T20:06:32.231Z,6.07
2018-12-19T20:09:02.392Z,6.20
2018-12-19T20:11:32.043Z,6.40
2018-12-19T20:14:03.176Z,6.40
2018-12-19T20:16:40.132Z,6.13
2018-12-19T20:19:11.404Z,6.03
2018-12-19T20:21:41.207Z,6.70
2018-12-19T20:24:12.189Z,5.97
2018-12-19T20:26:42.359Z,7.97
2018-12-19T20:29:12.558Z,7.10
2018-12-19T20:31:45.541Z,7.07
2018-12-19T20:34:19.357Z,10.13
2018-12-19T20:36:53.558Z,6.80
2018-12-19T20:39:28.019Z,7.17
2018-12-19T20:41:59.096Z,6.20
2018-12-19T20:44:29.287Z,7.10
2018-12-19T20:47:03.455Z,7.20
2018-12-19T20:49:34.731Z,7.90
2018-12-19T20:52:05.047Z,6.60
2018-12-19T20:54:36.946Z,7.73
2018-12-19T20:57:06.900Z,7.70
2018-12-19T20:59:37.468Z,7.37
2018-12-19T21:02:08.499Z,7.47
2018-12-19T21:04:39.238Z,7.37
2018-12-19T21:07:12.711Z,6.90
2018-12-19T21:09:45.274Z,6.37
2018-12-19T21:12:17.502Z,7.87
2018-12-19T21:14:47.622Z,7.20
2018-12-19T21:17:27.466Z,7.57
2018-12-19T21:20:00.817Z,7.00
2018-12-19T21:22:32.726Z,7.00
2018-12-19T21:25:04.710Z,6.63
2018-12-19T21:27:41.132Z,6.50
2018-12-19T21:30:13.305Z,6.43
2018-12-19T21:32:50.348Z,7.03
2018-12-19T21:35:24.498Z,6.30
2018-12-19T21:37:54.594Z,6.90
2018-12-19T21:40:26.889Z,6.83
2018-12-19T21:42:58.772Z,6.83
2018-12-19T21:45:30.616Z,7.27
2018-12-19T21:48:03.574Z,6.70
2018-12-19T21:50:36.115Z,7.17
2018-12-19T21:53:07.468Z,7.33
2018-12-19T21:55:37.963Z,7.73
2018-12-19T21:58:07.594Z,7.13
2018-12-19T22:00:41.928Z,6.80
2018-12-19T22:03:14.680Z,7.33
2018-12-19T22:05:52.103Z,7.20
2018-12-19T22:08:23.795Z,7.80
2018-12-19T22:10:55.251Z,6.53
2018-12-19T22:13:25.690Z,6.80
2018-12-19T22:15:59.440Z,6.83
2018-12-19T22:18:35.623Z,6.60
2018-12-19T22:21:10.795Z,7.13
2018-12-19T22:23:43.424Z,7.97
2018-12-19T22:26:15.058Z,7.30
2018-12-19T22:28:46.806Z,8.20
2018-12-19T22:31:18.370Z,7.90
2018-12-19T22:33:51.284Z,7.80
2018-12-19T22:36:24.907Z,8.40
2018-12-19T22:38:55.248Z,8.60
2018-12-19T22:41:32.087Z,8.00
2018-12-19T22:44:07.821Z,8.57
2018-12-19T22:46:34.506Z,8.43
2018-12-19T22:49:05.170Z,8.70
2018-12-19T22:51:35.752Z,8.20
2018-12-19T22:54:06.078Z,8.40
2018-12-19T22:56:36.779Z,8.60
2018-12-19T22:59:07.456Z,8.33
2018-12-19T23:01:44.696Z,8.53
2018-12-19T23:04:15.454Z,7.50
2018-12-19T23:06:46.548Z,7.43
2018-12-19T23:09:17.924Z,6.90
2018-12-19T23:11:50.162Z,7.13
2018-12-19T23:14:21.460Z,7.53
2018-12-19T23:16:53.891Z,7.37
2018-12-19T23:19:24.998Z,8.20
2018-12-19T23:21:57.084Z,7.90
2018-12-19T23:24:28.188Z,8.10
2018-12-19T23:26:59.973Z,7.03
2018-12-19T23:29:30.729Z,6.83
2018-12-19T23:32:01.639Z,7.47
2018-12-19T23:34:32.812Z,7.00
2018-12-19T23:37:03.283Z,7.30
2018-12-19T23:39:35.622Z,8.00
2018-12-19T23:42:09.800Z,7.47
2018-12-19T23:44:39.673Z,6.93
2018-12-19T23:47:09.657Z,7.80
2018-12-19T23:49:40.538Z,7.70
2018-12-19T23:52:12.366Z,7.90
2018-12-19T23:54:42.075Z,8.20
2018-12-19T23:57:12.217Z,7.63
2018-12-19T23:59:42.510Z,7.97
